createdAt,value
2023-04-07T00:01:00.022Z,99881.81
2023-04-07T00:03:27.641Z,99874.56
2023-04-07T00:05:54.755Z,99880.75
2023-04-07T00:08:21.706Z,99889.03
2023-04-07T00:10:48.704Z,99881.41
2023-04-07T00:13:16.313Z,99888.00
2023-04-07T00:15:43.314Z,99884.28
2023-04-07T00:18:10.319Z,99888.22
2023-04-07T00:20:37.338Z,99880.59
2023-04-07T00:23:04.376Z,99884.31
2023-04-07T00:25:31.587Z,99884.13
2023-04-07T00:27:58.518Z,99880.84
2023-04-07T00:30:25.679Z,99885.38
2023-04-07T00:32:52.974Z,99885.16
2023-04-07T00:35:20.450Z,99881.03
2023-04-07T00:37:47.483Z,99886.00
2023-04-07T00:40:14.621Z,99876.91
2023-04-07T00:42:41.780Z,99893.84
2023-04-07T00:45:10.707Z,99872.38
2023-04-07T00:47:38.729Z,99882.69
2023-04-07T00:50:06.276Z,99871.34
2023-04-07T00:52:33.826Z,99875.28
2023-04-07T00:55:00.986Z,99882.91
2023-04-07T00:57:28.008Z,99880.25
2023-04-07T00:59:56.525Z,99868.06
2023-04-07T01:02:34.194Z,99874.69
2023-04-07T01:05:38.835Z,99874.88
2023-04-07T01:08:35.415Z,99873.66
2023-04-07T01:11:28.574Z,99873.88
2023-04-07T01:13:58.537Z,99887.47
2023-04-07T01:16:56.745Z,99891.59
2023-04-07T01:19:49.055Z,99892.41
2023-04-07T01:22:20.160Z,99890.16
2023-04-07T01:25:02.148Z,99882.31
2023-04-07T01:28:06.493Z,99890.34
2023-04-07T01:30:38.193Z,99893.25
2023-04-07T01:33:07.138Z,99895.31
2023-04-07T01:35:37.155Z,99899.25
2023-04-07T01:38:04.974Z,99891.19
2023-04-07T01:40:34.090Z,99896.75
2023-04-07T01:43:01.901Z,99891.00
2023-04-07T01:45:30.916Z,99885.22
2023-04-07T01:47:58.527Z,99882.75
2023-04-07T01:50:27.431Z,99891.38
2023-04-07T01:52:54.556Z,99880.66
2023-04-07T01:55:23.730Z,99890.97
2023-04-07T01:58:05.405Z,99884.38
2023-04-07T02:00:34.542Z,99890.56
2023-04-07T02:03:12.071Z,99892.00
2023-04-07T02:05:40.606Z,99886.22
2023-04-07T02:08:11.741Z,99890.13
2023-04-07T02:10:39.923Z,99895.91
2023-04-07T02:13:10.388Z,99889.31
2023-04-07T02:15:38.243Z,99888.91
2023-04-07T02:18:07.842Z,99892.63
2023-04-07T02:20:36.587Z,99889.31
2023-04-07T02:23:04.026Z,99897.34
2023-04-07T02:25:32.767Z,99897.56
2023-04-07T02:28:00.718Z,99897.53
2023-04-07T02:30:28.589Z,99892.97
2023-04-07T02:32:57.027Z,99896.28
2023-04-07T02:35:24.382Z,99901.03
2023-04-07T02:37:51.734Z,99908.25
2023-04-07T02:40:18.927Z,99900.41
2023-04-07T02:42:46.895Z,99899.56
2023-04-07T02:45:14.572Z,99896.28
2023-04-07T02:47:41.833Z,99893.19
2023-04-07T02:50:09.590Z,99895.66
2023-04-07T02:52:36.607Z,99894.81
2023-04-07T02:55:10.187Z,99905.97
2023-04-07T02:57:37.185Z,99908.84
2023-04-07T03:00:09.398Z,99909.66
2023-04-07T03:02:55.151Z,99910.69
2023-04-07T03:05:22.645Z,99911.53
2023-04-07T03:07:49.904Z,99907.19
2023-04-07T03:10:17.285Z,99921.22
2023-04-07T03:12:44.708Z,99912.97
2023-04-07T03:15:12.146Z,99913.78
2023-04-07T03:17:44.077Z,99913.59
2023-04-07T03:20:11.323Z,99909.06
2023-04-07T03:22:38.819Z,99917.09
2023-04-07T03:25:11.216Z,99907.19
2023-04-07T03:27:38.309Z,99908.63
2023-04-07T03:30:08.910Z,99918.34
2023-04-07T03:32:36.077Z,99918.34
2023-04-07T03:35:03.201Z,99915.44
2023-04-07T03:37:30.384Z,99923.09
2023-04-07T03:39:57.524Z,99926.38
2023-04-07T03:42:34.572Z,99926.81
2023-04-07T03:45:04.653Z,99925.59
2023-04-07T03:47:33.800Z,99930.97
2023-04-07T03:50:03.564Z,99935.31
2023-04-07T03:52:35.088Z,99931.81
2023-04-07T03:55:11.753Z,99929.53
2023-04-07T03:57:39.957Z,99940.91
2023-04-07T04:00:07.652Z,99935.16
2023-04-07T04:02:43.441Z,99930.19
2023-04-07T04:05:14.917Z,99937.22
2023-04-07T04:07:43.472Z,99941.13
2023-04-07T04:10:11.025Z,99937.63
2023-04-07T04:12:42.341Z,99935.34
2023-04-07T04:15:11.898Z,99944.66
2023-04-07T04:17:40.117Z,99941.34
2023-04-07T04:20:09.020Z,99938.88
2023-04-07T04:22:54.842Z,99940.09
2023-04-07T04:25:21.926Z,99931.44
2023-04-07T04:27:52.982Z,99944.03
2023-04-07T04:30:23.004Z,99950.63
2023-04-07T04:32:54.126Z,99945.91
2023-04-07T04:35:56.622Z,99953.13
2023-04-07T04:38:25.426Z,99939.88
2023-04-07T04:40:57.869Z,99943.38
2023-04-07T04:43:28.785Z,99940.50
2023-04-07T04:45:57.081Z,99946.69
2023-04-07T04:48:27.506Z,99950.41
2023-04-07T04:50:54.934Z,99952.44
2023-04-07T04:53:22.421Z,99955.34
2023-04-07T04:55:55.033Z,99953.06
2023-04-07T04:58:26.717Z,99957.38
2023-04-07T05:01:00.508Z,99956.31
2023-04-07T05:03:41.880Z,99954.25
2023-04-07T05:06:17.899Z,99963.97
2023-04-07T05:08:47.795Z,99959.00
2023-04-07T05:11:17.361Z,99966.63
2023-04-07T05:13:48.417Z,99963.53
2023-04-07T05:16:15.509Z,99979.41
2023-04-07T05:18:42.763Z,99963.47
2023-04-07T05:21:12.737Z,99969.88
2023-04-07T05:23:43.328Z,99961.81
2023-04-07T05:26:11.729Z,99962.00
2023-04-07T05:28:39.944Z,99969.19
2023-04-07T05:31:13.988Z,99975.38
2023-04-07T05:33:43.414Z,99973.88
2023-04-07T05:36:10.631Z,99974.91
2023-04-07T05:38:40.629Z,99977.56
2023-04-07T05:41:12.668Z,99970.72
2023-04-07T05:43:39.879Z,99983.31
2023-04-07T05:46:07.094Z,99979.56
2023-04-07T05:48:39.888Z,99978.53
2023-04-07T05:51:10.894Z,99984.72
2023-04-07T05:53:38.022Z,99987.97
2023-04-07T05:56:06.121Z,99984.25
2023-04-07T05:58:45.346Z,99981.09
2023-04-07T06:01:14.522Z,99989.72
2023-04-07T06:03:46.167Z,99990.09
2023-04-07T06:06:21.778Z,99993.66
2023-04-07T06:08:48.989Z,99990.09
2023-04-07T06:11:16.048Z,99974.84
2023-04-07T06:13:43.917Z,99991.78
2023-04-07T06:16:25.334Z,100007.28
2023-04-07T06:18:52.596Z,100001.25
2023-04-07T06:21:19.816Z,99999.16
2023-04-07T06:23:47.353Z,99990.03
2023-04-07T06:26:15.023Z,99991.84
2023-04-07T06:28:46.680Z,99989.91
2023-04-07T06:31:15.266Z,99995.88
2023-04-07T06:33:47.136Z,100004.06
2023-04-07T06:36:23.983Z,99999.41
2023-04-07T06:38:56.717Z,99994.75
2023-04-07T06:41:23.989Z,99997.28
2023-04-07T06:43:51.753Z,100003.00
2023-04-07T06:46:22.284Z,100006.06
2023-04-07T06:48:49.639Z,99999.63
2023-04-07T06:51:16.669Z,99988.84
2023-04-07T06:53:49.106Z,99993.94
2023-04-07T06:56:16.800Z,99984.38
2023-04-07T06:58:44.000Z,100014.09
2023-04-07T07:01:11.409Z,100006.38
2023-04-07T07:03:38.644Z,99995.16
2023-04-07T07:06:06.475Z,100008.31
2023-04-07T07:08:36.546Z,100001.22
2023-04-07T07:11:03.831Z,100000.63
2023-04-07T07:13:31.076Z,100018.84
2023-04-07T07:15:58.353Z,100001.75
2023-04-07T07:18:26.005Z,100003.38
2023-04-07T07:20:53.131Z,100002.38
2023-04-07T07:23:20.248Z,100021.81
2023-04-07T07:25:48.318Z,100010.25
2023-04-07T07:28:15.687Z,100011.56
2023-04-07T07:30:42.697Z,100017.25
2023-04-07T07:33:10.454Z,100014.09
2023-04-07T07:35:38.074Z,100014.34
2023-04-07T07:38:05.168Z,100018.16
2023-04-07T07:40:32.795Z,100023.22
2023-04-07T07:43:01.141Z,100008.78
2023-04-07T07:45:28.432Z,100017.56
2023-04-07T07:47:55.653Z,100012.84
2023-04-07T07:50:22.868Z,100017.44
2023-04-07T07:52:50.080Z,100012.06
2023-04-07T07:55:17.161Z,100016.28
2023-04-07T07:57:44.268Z,100011.34
2023-04-07T08:00:12.298Z,100008.63
2023-04-07T08:02:45.224Z,100019.94
2023-04-07T08:05:13.034Z,100013.47
2023-04-07T08:07:40.129Z,100010.06
2023-04-07T08:10:07.464Z,100015.22
2023-04-07T08:12:35.512Z,100001.34
2023-04-07T08:15:05.581Z,99992.84
2023-04-07T08:17:32.946Z,100000.97
2023-04-07T08:20:01.532Z,100017.53
2023-04-07T08:22:28.634Z,100008.31
2023-04-07T08:24:56.054Z,99991.59
2023-04-07T08:27:23.028Z,99997.59
2023-04-07T08:30:02.481Z,99994.84
2023-04-07T08:32:45.300Z,100004.22
2023-04-07T08:35:12.978Z,99996.19
2023-04-07T08:37:41.456Z,99993.97
2023-04-07T08:40:08.891Z,99988.41
2023-04-07T08:42:40.879Z,99993.38
2023-04-07T08:45:10.039Z,99995.94
2023-04-07T08:47:38.598Z,99986.31
2023-04-07T08:50:09.396Z,99998.31
2023-04-07T08:52:47.080Z,99991.91
2023-04-07T08:55:14.964Z,99985.22
2023-04-07T08:57:43.018Z,99990.00
2023-04-07T09:00:11.434Z,99984.91
2023-04-07T09:02:46.000Z,100003.47
2023-04-07T09:05:14.863Z,99982.38
2023-04-07T09:07:43.500Z,99987.66
2023-04-07T09:10:10.904Z,99984.94
2023-04-07T09:12:38.473Z,99970.31
2023-04-07T09:15:08.942Z,99968.09
2023-04-07T09:17:36.196Z,99962.81
2023-04-07T09:20:04.372Z,99968.00
2023-04-07T09:22:39.304Z,99969.78
2023-04-07T09:25:16.775Z,99979.81
2023-04-07T09:28:00.247Z,99974.34
2023-04-07T09:30:28.837Z,99974.81
2023-04-07T09:32:56.219Z,99979.03
2023-04-07T09:35:24.807Z,99974.06
2023-04-07T09:38:03.644Z,99972.53
2023-04-07T09:40:30.789Z,99976.66
2023-04-07T09:43:01.840Z,99963.38
2023-04-07T09:45:35.160Z,99978.16
2023-04-07T09:48:22.047Z,99982.63
2023-04-07T09:50:52.248Z,99964.50
2023-04-07T09:53:23.385Z,99968.69
2023-04-07T09:55:50.861Z,99965.97
2023-04-07T09:58:18.801Z,99968.09
2023-04-07T10:00:46.870Z,99970.94
2023-04-07T10:03:15.611Z,99969.44
2023-04-07T10:05:43.798Z,99983.94
2023-04-07T10:08:13.262Z,99983.19
2023-04-07T10:10:43.495Z,99990.84
2023-04-07T10:13:11.851Z,99981.09
2023-04-07T10:15:40.233Z,99975.09
2023-04-07T10:18:09.130Z,99983.84
2023-04-07T10:20:42.236Z,99980.69
2023-04-07T10:23:32.275Z,99978.56
2023-04-07T10:26:01.362Z,99975.88
2023-04-07T10:28:31.035Z,99970.19
2023-04-07T10:30:58.712Z,99982.31
2023-04-07T10:33:52.116Z,99981.84
2023-04-07T10:36:21.181Z,99984.63
2023-04-07T10:39:09.741Z,99973.53
2023-04-07T10:41:38.438Z,99968.63
2023-04-07T10:44:06.971Z,99977.91
2023-04-07T10:46:47.262Z,99986.16
2023-04-07T10:49:18.654Z,99981.81
2023-04-07T10:52:12.421Z,99986.75
2023-04-07T10:54:43.064Z,99983.81
2023-04-07T10:57:14.672Z,99985.19
2023-04-07T11:00:02.801Z,99980.81
2023-04-07T11:02:30.032Z,99979.13
2023-04-07T11:04:57.390Z,99974.44
2023-04-07T11:07:45.096Z,99969.50
2023-04-07T11:10:13.811Z,99972.75
2023-04-07T11:12:40.895Z,99983.97
2023-04-07T11:15:22.271Z,99981.81
2023-04-07T11:18:17.070Z,99975.56
2023-04-07T11:20:55.890Z,99974.22
2023-04-07T11:23:25.355Z,99979.16
2023-04-07T11:26:03.266Z,99985.72
2023-04-07T11:28:31.098Z,99980.28
2023-04-07T11:31:00.475Z,99975.97
2023-04-07T11:33:29.693Z,99974.34
2023-04-07T11:36:01.926Z,99970.53
2023-04-07T11:38:35.108Z,99967.81
2023-04-07T11:41:15.670Z,99960.72
2023-04-07T11:43:43.104Z,99964.53
2023-04-07T11:46:18.581Z,99959.34
2023-04-07T11:48:47.411Z,99960.72
2023-04-07T11:51:19.290Z,99964.78
2023-04-07T11:53:50.469Z,99965.03
2023-04-07T11:56:18.914Z,99962.56
2023-04-07T11:58:50.535Z,99973.69
2023-04-07T12:01:18.198Z,99968.75
2023-04-07T12:04:05.031Z,99972.84
2023-04-07T12:06:35.459Z,99962.56
2023-04-07T12:09:02.991Z,99953.03
2023-04-07T12:11:30.316Z,99962.63
2023-04-07T12:13:57.519Z,99974.13
2023-04-07T12:16:24.913Z,99973.75
2023-04-07T12:18:52.184Z,99962.53
2023-04-07T12:21:20.482Z,99964.47
2023-04-07T12:23:48.949Z,99961.41
2023-04-07T12:26:16.285Z,99970.16
2023-04-07T12:28:43.421Z,99952.53
2023-04-07T12:31:11.187Z,99962.34
2023-04-07T12:33:38.346Z,99958.09
2023-04-07T12:36:05.886Z,99960.34
2023-04-07T12:38:32.900Z,99946.56
2023-04-07T12:41:03.773Z,99958.06
2023-04-07T12:43:31.735Z,99949.25
2023-04-07T12:45:58.997Z,99966.50
2023-04-07T12:48:27.683Z,99961.81
2023-04-07T12:50:54.997Z,99959.44
2023-04-07T12:53:23.089Z,99943.16
2023-04-07T12:55:50.651Z,99949.00
2023-04-07T12:58:19.223Z,99953.63
2023-04-07T13:00:49.484Z,99954.00
2023-04-07T13:03:17.051Z,99941.91
2023-04-07T13:05:44.135Z,99947.03
2023-04-07T13:08:13.547Z,99954.50
2023-04-07T13:10:40.498Z,99948.44
2023-04-07T13:13:12.633Z,99941.34
2023-04-07T13:15:39.752Z,99950.56
2023-04-07T13:18:07.151Z,99951.44
2023-04-07T13:20:34.132Z,99949.25
2023-04-07T13:23:08.141Z,99949.91
2023-04-07T13:25:37.992Z,99949.09
2023-04-07T13:28:05.957Z,99942.59
2023-04-07T13:30:33.717Z,99961.19
2023-04-07T13:33:03.018Z,99957.13
2023-04-07T13:35:35.716Z,99951.81
2023-04-07T13:38:04.258Z,99954.13
2023-04-07T13:40:31.413Z,99957.72
2023-04-07T13:42:59.600Z,99959.81
2023-04-07T13:45:29.852Z,99961.66
2023-04-07T13:47:57.049Z,99954.56
2023-04-07T13:50:24.446Z,99952.41
2023-04-07T13:52:51.836Z,99955.53
2023-04-07T13:55:20.570Z,99958.75
2023-04-07T13:57:50.943Z,99942.19
2023-04-07T14:00:18.647Z,99949.03
2023-04-07T14:02:47.834Z,99954.94
2023-04-07T14:05:15.009Z,99960.03
2023-04-07T14:07:41.936Z,99953.38
2023-04-07T14:10:10.710Z,99957.72
2023-04-07T14:12:39.033Z,99955.44
2023-04-07T14:15:07.046Z,99957.00
2023-04-07T14:17:34.146Z,99957.38
2023-04-07T14:20:02.263Z,99950.78
2023-04-07T14:22:30.247Z,99962.00
2023-04-07T14:24:59.987Z,99961.19
2023-04-07T14:27:28.133Z,99952.84
2023-04-07T14:29:58.084Z,99949.66
2023-04-07T14:32:25.241Z,99958.75
2023-04-07T14:34:52.391Z,99940.59
2023-04-07T14:37:24.196Z,99943.19
2023-04-07T14:40:01.386Z,99957.59
2023-04-07T14:42:30.891Z,99952.03
2023-04-07T14:44:59.881Z,99954.06
2023-04-07T14:47:27.704Z,99948.03
2023-04-07T14:49:55.595Z,99953.59
2023-04-07T14:52:22.705Z,99949.09
2023-04-07T14:54:50.036Z,99943.41
2023-04-07T14:57:17.367Z,99941.34
2023-04-07T14:59:44.445Z,99945.81
2023-04-07T15:02:11.535Z,99949.13
2023-04-07T15:04:39.283Z,99948.47
2023-04-07T15:07:06.460Z,99950.22
2023-04-07T15:09:33.700Z,99944.91
2023-04-07T15:12:01.067Z,99946.03
2023-04-07T15:14:28.414Z,99946.78
2023-04-07T15:16:55.864Z,99948.22
2023-04-07T15:19:23.177Z,99948.03
2023-04-07T15:21:50.517Z,99941.25
2023-04-07T15:24:19.558Z,99943.59
2023-04-07T15:26:46.930Z,99942.72
2023-04-07T15:29:14.259Z,99952.91
2023-04-07T15:31:41.528Z,99962.34
2023-04-07T15:34:08.913Z,99942.06
2023-04-07T15:36:36.315Z,99952.59
2023-04-07T15:39:05.573Z,99949.13
2023-04-07T15:41:33.430Z,99956.50
2023-04-07T15:44:01.493Z,99969.63
2023-04-07T15:46:29.442Z,99957.41
2023-04-07T15:48:56.804Z,99956.50
2023-04-07T15:51:24.300Z,99963.47
2023-04-07T15:53:51.489Z,99957.72
2023-04-07T15:56:18.823Z,99970.25
2023-04-07T15:58:50.658Z,99974.84
2023-04-07T16:01:21.179Z,99963.00
2023-04-07T16:03:48.694Z,99966.84
2023-04-07T16:06:16.564Z,99987.69
2023-04-07T16:08:44.011Z,99974.00
2023-04-07T16:11:11.570Z,99984.25
2023-04-07T16:13:38.781Z,99977.19
2023-04-07T16:16:07.839Z,99986.72
2023-04-07T16:18:35.202Z,99989.72
2023-04-07T16:21:04.548Z,99995.72
2023-04-07T16:23:31.993Z,99986.25
2023-04-07T16:25:59.290Z,99993.84
2023-04-07T16:28:26.381Z,100002.34
2023-04-07T16:30:53.435Z,100002.91
2023-04-07T16:33:20.655Z,100004.81
2023-04-07T16:35:47.860Z,100002.75
2023-04-07T16:38:15.005Z,100000.13
2023-04-07T16:40:56.840Z,100010.19
2023-04-07T16:43:28.032Z,100007.75
2023-04-07T16:45:56.655Z,100009.72
2023-04-07T16:48:23.861Z,100011.75
2023-04-07T16:50:51.051Z,100016.47
2023-04-07T16:53:21.282Z,100019.56
2023-04-07T16:55:48.842Z,100012.91
2023-04-07T16:58:19.829Z,100021.13
2023-04-07T17:00:46.954Z,100021.50
2023-04-07T17:03:17.452Z,100024.13
2023-04-07T17:05:44.923Z,100020.97
2023-04-07T17:08:12.289Z,100022.94
2023-04-07T17:10:42.040Z,100031.78
2023-04-07T17:13:09.261Z,100035.44
2023-04-07T17:15:38.122Z,100043.69
2023-04-07T17:18:05.277Z,100030.38
2023-04-07T17:20:32.650Z,100042.25
2023-04-07T17:22:59.590Z,100041.22
2023-04-07T17:25:26.722Z,100053.69
2023-04-07T17:27:55.365Z,100039.94
2023-04-07T17:30:25.365Z,100047.06
2023-04-07T17:32:53.679Z,100054.00
2023-04-07T17:35:21.979Z,100058.00
2023-04-07T17:37:51.206Z,100062.81
2023-04-07T17:40:19.084Z,100051.88
2023-04-07T17:42:46.494Z,100059.63
2023-04-07T17:45:18.084Z,100052.38
2023-04-07T17:47:46.653Z,100060.06
2023-04-07T17:50:19.084Z,100032.25
2023-04-07T17:52:50.204Z,100065.66
2023-04-07T17:55:20.196Z,100068.22
2023-04-07T17:57:47.360Z,100076.34
2023-04-07T18:00:14.616Z,100076.19
2023-04-07T18:02:42.333Z,100076.91
2023-04-07T18:05:13.450Z,100078.47
2023-04-07T18:07:40.525Z,100077.44
2023-04-07T18:10:08.453Z,100085.41
2023-04-07T18:12:38.161Z,100083.03
2023-04-07T18:15:07.787Z,100082.19
2023-04-07T18:17:34.876Z,100075.25
2023-04-07T18:20:04.138Z,100085.81
2023-04-07T18:22:31.756Z,100084.03
2023-04-07T18:25:00.387Z,100092.34
2023-04-07T18:27:28.482Z,100095.94
2023-04-07T18:29:58.755Z,100089.34
2023-04-07T18:32:26.085Z,100091.44
2023-04-07T18:34:53.905Z,100098.13
2023-04-07T18:37:22.433Z,100087.56
2023-04-07T18:39:49.577Z,100095.88
2023-04-07T18:42:16.678Z,100099.03
2023-04-07T18:44:44.936Z,100096.78
2023-04-07T18:47:12.000Z,100096.84
2023-04-07T18:49:40.309Z,100099.97
2023-04-07T18:52:07.650Z,100102.31
2023-04-07T18:54:34.913Z,100099.00
2023-04-07T18:57:02.910Z,100095.94
2023-04-07T18:59:30.512Z,100094.53
2023-04-07T19:01:57.644Z,100101.41
2023-04-07T19:04:25.085Z,100104.72
2023-04-07T19:06:52.809Z,100098.94
2023-04-07T19:09:20.030Z,100099.16
2023-04-07T19:11:47.626Z,100106.88
2023-04-07T19:14:14.625Z,100099.66
2023-04-07T19:16:42.085Z,100097.63
2023-04-07T19:19:10.228Z,100105.94
2023-04-07T19:21:40.352Z,100106.38
2023-04-07T19:24:07.903Z,100101.22
2023-04-07T19:26:35.273Z,100106.84
2023-04-07T19:29:03.652Z,100102.13
2023-04-07T19:31:31.472Z,100101.50
2023-04-07T19:33:59.315Z,100108.19
2023-04-07T19:36:26.672Z,100104.06
2023-04-07T19:38:53.786Z,100104.88
2023-04-07T19:41:21.304Z,100102.59
2023-04-07T19:43:48.921Z,100099.06
2023-04-07T19:46:16.612Z,100102.22
2023-04-07T19:48:44.039Z,100105.56
2023-04-07T19:51:11.119Z,100114.72
2023-04-07T19:53:38.327Z,100101.66
2023-04-07T19:56:05.612Z,100098.81
2023-04-07T19:58:34.525Z,100107.28
2023-04-07T20:01:04.623Z,100105.41
2023-04-07T20:03:31.781Z,100104.19
2023-04-07T20:05:59.739Z,100106.50
2023-04-07T20:08:26.873Z,100111.09
2023-04-07T20:10:53.904Z,100108.81
2023-04-07T20:13:20.920Z,100117.34
2023-04-07T20:15:49.288Z,100114.25
2023-04-07T20:18:19.288Z,100108.25
2023-04-07T20:20:46.559Z,100112.81
2023-04-07T20:23:16.121Z,100114.47
2023-04-07T20:25:43.129Z,100115.28
2023-04-07T20:28:10.278Z,100110.94
2023-04-07T20:30:37.226Z,100115.13
2023-04-07T20:33:04.565Z,100111.00
2023-04-07T20:35:31.954Z,100117.66
2023-04-07T20:38:00.314Z,100112.91
2023-04-07T20:40:27.768Z,100116.66
2023-04-07T20:42:54.840Z,100107.56
2023-04-07T20:45:22.380Z,100107.16
2023-04-07T20:47:49.522Z,100116.28
2023-04-07T20:50:17.226Z,100107.59
2023-04-07T20:52:44.208Z,100114.63
2023-04-07T20:55:11.899Z,100110.28
2023-04-07T20:57:41.747Z,100115.91
2023-04-07T21:00:10.473Z,100116.13
2023-04-07T21:02:38.416Z,100123.97
2023-04-07T21:05:05.893Z,100124.59
2023-04-07T21:07:32.808Z,100127.28
2023-04-07T21:10:01.075Z,100119.84
2023-04-07T21:12:28.119Z,100127.72
2023-04-07T21:14:55.151Z,100121.09
2023-04-07T21:17:22.300Z,100124.03
2023-04-07T21:19:49.300Z,100119.69
2023-04-07T21:22:16.348Z,100121.97
2023-04-07T21:24:43.412Z,100124.88
2023-04-07T21:27:10.618Z,100120.97
2023-04-07T21:29:37.812Z,100113.53
2023-04-07T21:32:05.567Z,100114.16
2023-04-07T21:34:32.483Z,100115.19
2023-04-07T21:36:59.560Z,100122.44
2023-04-07T21:39:26.634Z,100120.19
2023-04-07T21:41:53.602Z,100115.22
2023-04-07T21:44:21.531Z,100113.16
2023-04-07T21:46:49.039Z,100123.94
2023-04-07T21:49:18.125Z,100123.94
2023-04-07T21:51:45.090Z,100115.47
2023-04-07T21:54:12.578Z,100121.88
2023-04-07T21:56:39.573Z,100118.59
2023-04-07T21:59:07.442Z,100108.88
2023-04-07T22:01:34.786Z,100121.06
2023-04-07T22:04:02.284Z,100123.97
2023-04-07T22:06:29.484Z,100126.28
2023-04-07T22:09:01.518Z,100128.13
2023-04-07T22:11:29.249Z,100128.34
2023-04-07T22:13:56.404Z,100133.94
2023-04-07T22:16:23.509Z,100126.91
2023-04-07T22:18:51.165Z,100124.41
2023-04-07T22:21:18.503Z,100130.22
2023-04-07T22:23:45.713Z,100120.50
2023-04-07T22:26:13.533Z,100127.13
2023-04-07T22:28:41.316Z,100120.09
2023-04-07T22:31:08.241Z,100116.19
2023-04-07T22:33:35.216Z,100113.28
2023-04-07T22:36:03.751Z,100116.19
2023-04-07T22:38:31.037Z,100124.66
2023-04-07T22:40:57.891Z,100113.88
2023-04-07T22:43:25.286Z,100117.00
2023-04-07T22:45:52.226Z,100106.91
2023-04-07T22:48:19.132Z,100108.56
2023-04-07T22:50:46.389Z,100109.59
2023-04-07T22:53:13.349Z,100110.03
2023-04-07T22:55:40.866Z,100124.94
2023-04-07T22:58:07.913Z,100122.25
2023-04-07T23:00:35.319Z,100116.69
2023-04-07T23:03:02.434Z,100115.03
2023-04-07T23:05:29.535Z,100121.88
2023-04-07T23:07:56.414Z,100125.81
2023-04-07T23:10:23.552Z,100120.19
2023-04-07T23:12:54.050Z,100123.72
2023-04-07T23:15:21.077Z,100111.34
2023-04-07T23:17:48.143Z,100119.59
2023-04-07T23:20:15.523Z,100117.94
2023-04-07T23:22:42.512Z,100117.34
2023-04-07T23:25:09.720Z,100117.13
2023-04-07T23:27:36.732Z,100103.09
2023-04-07T23:30:04.725Z,100117.13
2023-04-07T23:32:31.844Z,100110.31
2023-04-07T23:34:58.937Z,100117.75
2023-04-07T23:37:26.067Z,100120.44
2023-04-07T23:39:53.359Z,100120.66
2023-04-07T23:42:20.290Z,100120.66
2023-04-07T23:44:47.391Z,100099.13
2023-04-07T23:47:14.343Z,100118.34
2023-04-07T23:49:41.274Z,100110.72
2023-04-07T23:52:08.474Z,100108.88
2023-04-07T23:54:35.995Z,100121.47
2023-04-07T23:57:03.514Z,100113.63
2023-04-07T23:59:30.669Z,100114.44
